Airport View

Enter AWOS ICAO identifier for current METAR.

ex. KFNL

KANK 171035Z AUTO 00000KT 10SM CLR M02/M05 A3030 RMK AO1 T10201049

17 Nov 2019 10:35

Frequency: 133.850

Phone: 719-539-5268

Other Area AWOS: KMYP - KAEJ - K7BM - K04V

TAF AMD KASE 170605Z 1706/1806 17005KT P6SM OVC060 FM170900 21005KT P6SM FEW120 FEW250 FM171800 35005KT P6SM FEW120 FEW250 FM172300 30008KT P6SM FEW100 FEW250 FM180200 21006KT P6SM FEW100 FEW200